Time;durP1;ratioP1;P1;durP2;ratioP2;P2;SDS_P1;SDS_P2;PMS_P1;PMS_P2;Temp;Humidity;BMP_temperature;BMP_pressure;BME280_temperature;BME280_humidity;BME280_pressure;Samples;Min_cycle;Max_cycle;Signal;HPM_P1;HPM_P2
2021/12/16 00:02:48;;;;;;;20.73;9.20;;;9.80;99.90;;;;;;5057747;28;20469;-56
2021/12/16 00:05:30;;;;;;;18.80;10.00;;;9.70;99.90;;;;;;5057855;28;20494;-56
2021/12/16 00:08:00;;;;;;;20.97;9.67;;;9.70;99.90;;;;;;5058079;28;20463;-56
2021/12/16 00:10:32;;;;;;;21.97;10.83;;;9.70;99.90;;;;;;5058279;28;20543;-55
2021/12/16 00:30:01;;;;;;;20.73;11.97;;;9.70;99.90;;;;;;5010763;28;20450;-56
2021/12/16 00:32:44;;;;;;;21.93;9.40;;;9.70;99.90;;;;;;5058436;28;20434;-55
2021/12/16 00:35:12;;;;;;;18.87;9.37;;;9.70;99.90;;;;;;5057577;28;20464;-56
2021/12/16 00:37:39;;;;;;;23.40;11.30;;;9.70;99.90;;;;;;5058335;28;20478;-50
2021/12/16 00:40:10;;;;;;;20.87;9.77;;;9.70;99.90;;;;;;5057447;28;21007;-53
2021/12/16 00:42:45;;;;;;;19.13;9.20;;;9.70;99.90;;;;;;5057908;28;20456;-54
2021/12/16 00:48:01;;;;;;;18.90;10.10;;;9.60;99.90;;;;;;5057971;28;20833;-54
2021/12/16 00:55:58;;;;;;;25.03;11.00;;;9.70;99.90;;;;;;5059668;28;20409;-58
2021/12/16 00:58:31;;;;;;;25.17;10.40;;;9.70;99.90;;;;;;5060126;28;20486;-54
2021/12/16 01:01:05;;;;;;;21.63;8.97;;;9.70;99.90;;;;;;5058630;28;20545;-57
2021/12/16 01:03:40;;;;;;;23.60;11.90;;;9.70;99.90;;;;;;5058004;28;20534;-55
2021/12/16 01:06:24;;;;;;;26.40;8.03;;;9.60;99.90;;;;;;5057048;28;20486;-56
2021/12/16 01:09:11;;;;;;;23.00;10.80;;;9.60;99.90;;;;;;5057800;28;20439;-55
2021/12/16 01:36:42;;;;;;;19.80;9.10;;;9.50;99.90;;;;;;5054751;28;20458;-57
2021/12/16 01:39:50;;;;;;;21.60;9.80;;;9.50;99.90;;;;;;5062888;28;20809;-56
2021/12/16 01:42:32;;;;;;;24.60;10.67;;;9.50;99.90;;;;;;5061361;28;20550;-52
2021/12/16 01:48:06;;;;;;;27.07;10.20;;;9.50;99.90;;;;;;5060525;28;20510;-55
2021/12/16 01:50:36;;;;;;;30.43;11.20;;;9.50;99.90;;;;;;5063609;28;20476;-56
2021/12/16 01:53:22;;;;;;;22.70;8.13;;;9.50;99.90;;;;;;5063340;28;20479;-56
2021/12/16 01:55:56;;;;;;;21.53;9.53;;;9.50;99.90;;;;;;5062987;28;20446;-54
2021/12/16 01:58:27;;;;;;;23.90;9.20;;;9.60;99.90;;;;;;5063984;28;21097;-54
2021/12/16 02:01:00;;;;;;;24.37;9.87;;;9.50;99.90;;;;;;5063882;28;20476;-54
2021/12/16 02:03:41;;;;;;;24.30;10.47;;;9.50;99.90;;;;;;5063856;28;20534;-55
2021/12/16 02:06:23;;;;;;;20.20;11.37;;;9.50;99.90;;;;;;5062697;28;20959;-52
2021/12/16 02:08:55;;;;;;;17.50;9.67;;;9.40;99.90;;;;;;5062892;28;20876;-49
2021/12/16 02:11:45;;;;;;;21.50;10.80;;;9.40;99.90;;;;;;5062272;28;20429;-55
2021/12/16 02:28:15;;;;;;;13.73;6.70;;;9.50;99.90;;;;;;5059461;28;20899;-52
2021/12/16 02:33:51;;;;;;;14.50;6.70;;;9.30;99.90;;;;;;5059961;28;20730;-55
2021/12/16 02:36:28;;;;;;;11.20;6.13;;;9.30;99.90;;;;;;5060021;28;20467;-55
2021/12/16 02:39:00;;;;;;;13.30;8.00;;;9.20;99.90;;;;;;5060447;28;20486;-54
2021/12/16 02:41:28;;;;;;;16.40;7.87;;;9.30;99.90;;;;;;5059281;28;20452;-54
2021/12/16 02:44:13;;;;;;;10.00;7.00;;;9.30;99.90;;;;;;5059595;28;20467;-55
2021/12/16 02:49:26;;;;;;;13.47;6.40;;;9.40;99.90;;;;;;5059497;28;20849;-55
2021/12/16 02:51:53;;;;;;;10.57;6.47;;;9.40;99.90;;;;;;5059429;28;20535;-55
2021/12/16 02:54:21;;;;;;;14.10;6.67;;;9.40;99.90;;;;;;5059255;28;20906;-55
2021/12/16 02:56:48;;;;;;;14.50;6.73;;;9.40;99.90;;;;;;5059782;28;20427;-56
2021/12/16 02:59:16;;;;;;;14.77;5.77;;;9.40;99.90;;;;;;5059917;28;20447;-51
2021/12/16 03:01:45;;;;;;;14.73;6.33;;;9.40;99.90;;;;;;5059257;28;20473;-54
2021/12/16 03:04:15;;;;;;;11.70;7.17;;;9.40;99.90;;;;;;5059543;28;20835;-54
2021/12/16 03:06:44;;;;;;;11.20;6.47;;;9.40;99.90;;;;;;5059091;28;20873;-54
2021/12/16 03:09:15;;;;;;;15.03;5.93;;;9.50;99.90;;;;;;5059399;28;20900;-55
2021/12/16 03:11:54;;;;;;;13.67;7.00;;;9.50;99.90;;;;;;5059461;28;20501;-51
2021/12/16 03:14:30;;;;;;;10.77;6.70;;;9.50;99.90;;;;;;5061003;28;20482;-53
2021/12/16 03:17:15;;;;;;;14.67;6.90;;;9.40;99.90;;;;;;5061493;28;20465;-57
2021/12/16 03:19:55;;;;;;;12.07;6.07;;;9.40;99.90;;;;;;5059249;28;20514;-56
2021/12/16 03:22:42;;;;;;;14.30;5.80;;;9.40;99.90;;;;;;5059393;28;20456;-56
2021/12/16 03:25:19;;;;;;;12.67;5.90;;;9.40;99.90;;;;;;5058844;28;21050;-56
2021/12/16 03:28:20;;;;;;;6.50;4.90;;;9.30;99.90;;;;;;5059370;28;20438;-55
2021/12/16 03:34:09;;;;;;;9.37;5.40;;;9.30;99.90;;;;;;5053206;28;20551;-55
2021/12/16 03:36:49;;;;;;;9.80;5.13;;;9.30;99.90;;;;;;5059149;28;20500;-52
2021/12/16 03:39:17;;;;;;;9.70;4.70;;;9.40;99.90;;;;;;5058079;28;20443;-55
2021/12/16 03:41:44;;;;;;;15.90;6.03;;;9.30;99.90;;;;;;5058348;28;20440;-54
2021/12/16 03:44:17;;;;;;;12.10;5.80;;;9.40;99.90;;;;;;5058659;28;20458;-55
2021/12/16 03:46:52;;;;;;;13.20;6.53;;;9.40;99.90;;;;;;5058576;28;20473;-56
2021/12/16 03:49:22;;;;;;;11.63;4.63;;;9.40;99.90;;;;;;5058302;28;20431;-55
2021/12/16 03:51:53;;;;;;;8.60;5.30;;;9.40;99.90;;;;;;5058643;28;20499;-54
2021/12/16 03:54:23;;;;;;;13.37;5.30;;;9.40;99.90;;;;;;5059168;28;20880;-57
2021/12/16 03:56:51;;;;;;;6.70;4.43;;;9.40;99.90;;;;;;5059877;28;20482;-55
2021/12/16 03:59:22;;;;;;;9.90;5.53;;;9.40;99.90;;;;;;5059401;28;20460;-56
2021/12/16 04:01:50;;;;;;;7.57;4.77;;;9.40;99.90;;;;;;5059614;28;20478;-55
2021/12/16 04:04:17;;;;;;;7.80;4.73;;;9.50;99.90;;;;;;5059528;28;20747;-57
2021/12/16 04:06:44;;;;;;;11.33;5.00;;;9.50;99.90;;;;;;5059407;28;20544;-55
2021/12/16 04:09:14;;;;;;;12.03;5.00;;;9.50;99.90;;;;;;5058590;28;20518;-52
2021/12/16 04:11:44;;;;;;;10.40;5.13;;;9.40;99.90;;;;;;5059000;28;20450;-55
2021/12/16 04:14:14;;;;;;;10.43;4.97;;;9.50;99.90;;;;;;5058358;28;20781;-52
2021/12/16 04:16:46;;;;;;;12.13;6.90;;;9.50;99.90;;;;;;5058458;28;20463;-56
2021/12/16 04:19:16;;;;;;;12.10;5.40;;;9.50;99.90;;;;;;5058458;28;20725;-55
2021/12/16 04:21:47;;;;;;;10.43;5.30;;;9.50;99.90;;;;;;5060919;28;20969;-56
2021/12/16 04:24:14;;;;;;;10.47;5.87;;;9.50;99.90;;;;;;5059852;28;20438;-56
2021/12/16 04:26:42;;;;;;;13.50;6.73;;;9.50;99.90;;;;;;5058048;28;20542;-55
2021/12/16 04:29:09;;;;;;;10.13;5.00;;;9.50;99.90;;;;;;5057900;28;20447;-53
2021/12/16 04:31:38;;;;;;;8.00;4.80;;;9.40;99.90;;;;;;5058019;28;20443;-54
2021/12/16 04:34:08;;;;;;;9.20;4.97;;;9.50;99.90;;;;;;5057753;28;20503;-55
2021/12/16 04:36:35;;;;;;;9.80;6.50;;;9.50;99.90;;;;;;5058074;28;20443;-54
2021/12/16 04:39:05;;;;;;;10.77;5.80;;;9.50;99.90;;;;;;5057999;28;20472;-56
2021/12/16 04:41:32;;;;;;;8.53;5.20;;;9.40;99.90;;;;;;5057615;28;20452;-53
2021/12/16 04:43:59;;;;;;;18.17;6.77;;;9.40;99.90;;;;;;5058113;28;20450;-56
2021/12/16 04:46:29;;;;;;;9.90;5.40;;;9.40;99.90;;;;;;5057893;28;20548;-54
2021/12/16 04:48:59;;;;;;;9.23;4.83;;;9.50;99.90;;;;;;5057946;28;20444;-54
2021/12/16 04:51:30;;;;;;;11.80;4.77;;;9.50;99.90;;;;;;5057520;28;20539;-55
2021/12/16 04:53:57;;;;;;;10.70;6.17;;;9.50;99.90;;;;;;5057803;28;20475;-55
2021/12/16 04:56:25;;;;;;;9.27;5.20;;;9.40;99.90;;;;;;5057440;28;20495;-56
2021/12/16 04:58:54;;;;;;;12.10;6.07;;;9.40;99.90;;;;;;5058070;28;20756;-56
2021/12/16 05:01:21;;;;;;;11.73;4.87;;;9.50;99.90;;;;;;5057343;28;21057;-56
2021/12/16 05:03:48;;;;;;;9.73;5.17;;;9.40;99.90;;;;;;5057513;28;20468;-56
2021/12/16 05:06:16;;;;;;;14.33;5.87;;;9.50;99.90;;;;;;5057732;28;20482;-53
2021/12/16 05:08:44;;;;;;;14.10;6.40;;;9.50;99.90;;;;;;5056498;28;20501;-54
2021/12/16 05:11:14;;;;;;;13.33;6.50;;;9.50;99.90;;;;;;5057323;28;20437;-56
2021/12/16 05:13:42;;;;;;;10.13;5.70;;;9.50;99.90;;;;;;5057310;28;20478;-52
2021/12/16 05:16:09;;;;;;;9.93;5.77;;;9.50;99.90;;;;;;5057030;28;20455;-52
2021/12/16 05:18:38;;;;;;;8.73;4.47;;;9.40;99.90;;;;;;5057395;28;20448;-54
2021/12/16 05:21:07;;;;;;;10.57;5.13;;;9.40;99.90;;;;;;5057218;28;20490;-57
2021/12/16 05:26:21;;;;;;;13.10;6.40;;;9.40;99.90;;;;;;5057761;28;20481;-56
2021/12/16 05:28:52;;;;;;;16.80;6.10;;;9.40;99.90;;;;;;5059299;28;20483;-53
2021/12/16 05:31:20;;;;;;;10.63;5.40;;;9.40;99.90;;;;;;5058475;28;20519;-56
2021/12/16 05:33:47;;;;;;;10.03;5.60;;;9.30;99.90;;;;;;5056968;28;20490;-56
2021/12/16 05:36:14;;;;;;;14.63;6.97;;;9.30;99.90;;;;;;5057015;28;20452;-56
2021/12/16 05:38:41;;;;;;;10.33;6.90;;;9.20;99.90;;;;;;5057521;28;20456;-56
2021/12/16 05:41:12;;;;;;;8.77;4.37;;;9.30;99.90;;;;;;5056489;28;20453;-56
2021/12/16 05:43:40;;;;;;;15.07;6.30;;;9.20;99.90;;;;;;5057107;28;20827;-56
2021/12/16 05:46:08;;;;;;;13.10;5.57;;;9.20;99.90;;;;;;5057201;28;20474;-61
2021/12/16 05:48:39;;;;;;;12.83;6.40;;;9.10;99.90;;;;;;5057279;28;20453;-54
2021/12/16 05:51:09;;;;;;;8.20;5.80;;;9.10;99.90;;;;;;5056806;28;20467;-55
2021/12/16 05:53:38;;;;;;;12.97;5.97;;;9.00;99.90;;;;;;5057368;28;20438;-56
2021/12/16 05:56:05;;;;;;;11.63;6.60;;;8.90;99.90;;;;;;5057258;28;20470;-56
2021/12/16 05:58:32;;;;;;;8.90;5.30;;;8.80;99.90;;;;;;5056577;28;20443;-55
2021/12/16 06:01:05;;;;;;;12.10;6.60;;;8.80;99.90;;;;;;5057053;28;20505;-56
2021/12/16 06:03:32;;;;;;;11.57;6.07;;;8.80;99.90;;;;;;5058763;28;20530;-56
2021/12/16 06:05:59;;;;;;;10.77;6.20;;;8.70;99.90;;;;;;5059961;28;20468;-55
2021/12/16 06:08:26;;;;;;;9.50;5.30;;;8.80;99.90;;;;;;5061222;28;20443;-53
2021/12/16 06:13:37;;;;;;;17.40;5.83;;;8.70;99.90;;;;;;5059489;28;20489;-56
2021/12/16 06:27:10;;;;;;;16.10;7.97;;;8.80;99.90;;;;;;5061308;28;20476;-53
2021/12/16 06:29:39;;;;;;;12.67;7.33;;;8.80;99.90;;;;;;5062432;28;20857;-51
2021/12/16 06:32:08;;;;;;;16.93;8.60;;;8.80;99.90;;;;;;5062216;28;20448;-52
2021/12/16 06:34:35;;;;;;;14.70;8.10;;;8.70;99.90;;;;;;5063444;28;20932;-52
2021/12/16 06:37:01;;;;;;;15.43;8.30;;;8.70;99.90;;;;;;5063304;28;20521;-55
2021/12/16 06:39:29;;;;;;;17.67;7.00;;;8.80;99.90;;;;;;5060396;28;20478;-55
2021/12/16 06:41:55;;;;;;;13.73;6.60;;;8.80;99.90;;;;;;5059823;28;20426;-56
2021/12/16 06:44:26;;;;;;;16.70;7.87;;;8.90;99.90;;;;;;5059766;28;20650;-53
2021/12/16 06:46:58;;;;;;;14.37;7.60;;;8.90;99.90;;;;;;5059747;28;20492;-58
2021/12/16 06:49:28;;;;;;;10.60;6.30;;;8.90;99.90;;;;;;5059702;28;20449;-55
2021/12/16 06:51:58;;;;;;;14.60;7.90;;;8.80;99.90;;;;;;5059834;28;20474;-52
2021/12/16 06:54:31;;;;;;;18.10;7.20;;;8.90;99.90;;;;;;5059680;28;20432;-55
2021/12/16 06:57:13;;;;;;;20.13;7.73;;;8.90;99.90;;;;;;5059910;28;21062;-55
2021/12/16 06:59:50;;;;;;;24.33;8.07;;;8.90;99.90;;;;;;5059440;28;20470;-51
2021/12/16 07:02:33;;;;;;;13.47;5.60;;;8.90;99.90;;;;;;5059416;28;20521;-53
2021/12/16 07:05:04;;;;;;;15.33;6.87;;;8.90;99.90;;;;;;5059360;28;20475;-55
2021/12/16 07:07:31;;;;;;;11.00;6.10;;;8.90;99.90;;;;;;5059622;28;20478;-55
2021/12/16 07:09:58;;;;;;;12.20;5.93;;;8.90;99.90;;;;;;5059619;28;20819;-56
2021/12/16 07:12:35;;;;;;;14.47;6.43;;;8.90;99.90;;;;;;5059408;28;20436;-55
2021/12/16 07:15:02;;;;;;;15.13;7.07;;;9.00;99.90;;;;;;5057782;28;20487;-50
2021/12/16 07:17:29;;;;;;;13.23;7.10;;;9.00;99.90;;;;;;5059518;28;20541;-53
2021/12/16 07:19:55;;;;;;;13.80;7.10;;;9.00;99.90;;;;;;5059313;28;20447;-55
2021/12/16 07:22:24;;;;;;;17.20;7.93;;;9.00;99.90;;;;;;5061636;28;20780;-56
2021/12/16 07:24:52;;;;;;;10.33;6.30;;;9.00;99.90;;;;;;5061982;28;20428;-52
2021/12/16 07:27:19;;;;;;;10.63;6.87;;;9.10;99.90;;;;;;5059685;28;20557;-55
2021/12/16 07:29:46;;;;;;;13.20;6.57;;;9.10;99.90;;;;;;5059172;28;20812;-53
2021/12/16 07:32:12;;;;;;;10.30;5.50;;;9.10;99.90;;;;;;5059214;28;20931;-54
2021/12/16 07:34:39;;;;;;;11.07;6.27;;;9.10;99.90;;;;;;5058481;28;20470;-54
2021/12/16 07:37:08;;;;;;;15.70;7.83;;;9.10;99.90;;;;;;5059188;28;20443;-51
2021/12/16 07:39:40;;;;;;;13.37;8.07;;;9.10;99.90;;;;;;5059811;28;20491;-54
2021/12/16 07:42:11;;;;;;;16.10;5.73;;;9.10;99.90;;;;;;5061226;28;20472;-54
2021/12/16 07:44:38;;;;;;;11.43;6.80;;;9.10;99.90;;;;;;5060540;28;20450;-54
2021/12/16 07:47:08;;;;;;;17.67;7.77;;;9.10;99.90;;;;;;5046875;28;20491;-56
2021/12/16 07:49:39;;;;;;;15.53;7.60;;;9.10;99.90;;;;;;5039024;28;20464;-56
2021/12/16 07:52:09;;;;;;;12.93;5.93;;;9.10;99.90;;;;;;5037362;28;20447;-55
2021/12/16 07:54:37;;;;;;;15.10;6.50;;;9.10;99.90;;;;;;5056154;28;20441;-54
2021/12/16 07:57:06;;;;;;;11.17;5.93;;;9.20;99.90;;;;;;5038648;28;20771;-53
2021/12/16 07:59:36;;;;;;;9.97;6.87;;;9.20;99.90;;;;;;5064823;28;20444;-54
2021/12/16 08:02:04;;;;;;;16.37;7.57;;;9.20;99.90;;;;;;5055073;28;20438;-54
2021/12/16 08:04:38;;;;;;;13.00;6.10;;;9.20;99.90;;;;;;5054230;28;20451;-56
2021/12/16 08:07:06;;;;;;;14.10;9.33;;;9.20;99.90;;;;;;5058365;28;20492;-51
2021/12/16 08:09:35;;;;;;;7.97;4.90;;;9.20;99.90;;;;;;5047492;28;20920;-57
2021/12/16 08:12:04;;;;;;;12.57;4.70;;;9.20;99.90;;;;;;5045137;28;20442;-51
2021/12/16 08:14:30;;;;;;;12.30;5.90;;;9.30;99.90;;;;;;5045569;28;20907;-56
2021/12/16 08:16:57;;;;;;;10.30;5.93;;;9.30;99.90;;;;;;5045878;28;20875;-55
2021/12/16 08:19:24;;;;;;;9.77;4.60;;;9.40;99.90;;;;;;5045382;28;20963;-57
2021/12/16 08:21:51;;;;;;;8.20;5.30;;;9.30;99.90;;;;;;5044341;28;20509;-57
2021/12/16 08:24:18;;;;;;;10.50;5.37;;;9.30;99.90;;;;;;5038877;28;20540;-54
2021/12/16 08:26:47;;;;;;;10.33;5.63;;;9.40;99.90;;;;;;5038519;28;20488;-55
2021/12/16 08:29:15;;;;;;;15.40;5.37;;;9.40;99.90;;;;;;5039148;28;20457;-54
2021/12/16 08:31:42;;;;;;;8.67;4.67;;;9.40;99.90;;;;;;5039147;28;20473;-55
2021/12/16 08:34:13;;;;;;;8.17;5.10;;;9.50;99.90;;;;;;5041061;28;20444;-56
2021/12/16 08:36:42;;;;;;;13.93;6.50;;;9.50;99.90;;;;;;5043342;28;20468;-56
2021/12/16 08:39:10;;;;;;;8.93;5.57;;;9.50;99.90;;;;;;5046832;28;20533;-56
2021/12/16 08:41:41;;;;;;;11.70;6.10;;;9.60;99.90;;;;;;5043609;28;20826;-55
2021/12/16 08:44:08;;;;;;;12.80;5.87;;;9.50;99.90;;;;;;5044087;28;20469;-57
2021/12/16 08:46:40;;;;;;;11.17;6.33;;;9.50;99.90;;;;;;5044491;28;20482;-56
2021/12/16 08:49:10;;;;;;;9.77;6.40;;;9.50;99.90;;;;;;5044160;28;20494;-56
2021/12/16 08:51:39;;;;;;;10.70;5.63;;;9.50;99.90;;;;;;5043738;28;20457;-57
2021/12/16 08:54:06;;;;;;;17.53;5.10;;;9.60;99.90;;;;;;5043021;28;20502;-56
2021/12/16 08:56:34;;;;;;;10.10;4.87;;;9.50;99.90;;;;;;5042634;28;20437;-55
2021/12/16 08:59:03;;;;;;;11.07;4.60;;;9.60;99.90;;;;;;5042936;28;20447;-53
2021/12/16 09:01:33;;;;;;;8.70;4.47;;;9.60;99.90;;;;;;5042956;28;20486;-57
2021/12/16 09:04:02;;;;;;;10.53;5.70;;;9.60;99.90;;;;;;5046636;28;20517;-55
2021/12/16 09:06:29;;;;;;;7.97;5.10;;;9.60;99.90;;;;;;5052211;28;20498;-57
2021/12/16 09:08:56;;;;;;;7.27;4.00;;;9.60;99.90;;;;;;5052301;28;20496;-55
2021/12/16 09:11:26;;;;;;;9.53;4.30;;;9.60;99.90;;;;;;5053268;28;20472;-57
2021/12/16 09:13:58;;;;;;;4.40;3.40;;;9.60;99.90;;;;;;5052593;28;20492;-55
2021/12/16 09:16:29;;;;;;;6.17;3.53;;;9.60;99.90;;;;;;5052656;28;20443;-56
2021/12/16 09:18:57;;;;;;;8.93;5.40;;;9.60;99.90;;;;;;5052751;28;20414;-52
2021/12/16 09:21:29;;;;;;;10.97;5.00;;;9.60;99.90;;;;;;5051868;28;20508;-53
2021/12/16 09:23:58;;;;;;;8.10;4.70;;;9.60;99.90;;;;;;5052455;28;20541;-57
2021/12/16 09:26:25;;;;;;;6.80;4.10;;;9.70;99.90;;;;;;5044597;28;20514;-58
2021/12/16 09:28:52;;;;;;;7.37;3.73;;;9.70;99.90;;;;;;5043014;28;20479;-57
2021/12/16 09:31:22;;;;;;;7.10;5.07;;;9.70;99.90;;;;;;5047574;28;20454;-56
2021/12/16 09:33:52;;;;;;;8.47;4.83;;;9.70;99.90;;;;;;5038325;28;20464;-53
2021/12/16 09:36:22;;;;;;;16.63;4.73;;;9.70;99.90;;;;;;5045671;28;20549;-54
2021/12/16 09:38:51;;;;;;;9.43;5.00;;;9.70;99.90;;;;;;5024910;28;20451;-56
2021/12/16 09:41:18;;;;;;;6.90;4.00;;;9.70;99.90;;;;;;5034167;28;20478;-56
2021/12/16 09:43:48;;;;;;;9.43;4.50;;;9.80;99.90;;;;;;5045889;28;20444;-57
2021/12/16 09:46:18;;;;;;;12.10;5.90;;;9.70;99.90;;;;;;5045932;28;20452;-57
2021/12/16 09:48:46;;;;;;;8.40;5.03;;;9.80;99.90;;;;;;5046109;28;20461;-54
2021/12/16 09:51:21;;;;;;;5.70;3.53;;;9.80;99.90;;;;;;5046671;28;20468;-55
2021/12/16 09:53:51;;;;;;;8.33;4.03;;;9.80;99.90;;;;;;5046412;28;20462;-56
2021/12/16 09:56:19;;;;;;;18.97;5.60;;;9.90;99.90;;;;;;5045937;28;20450;-57
2021/12/16 09:58:53;;;;;;;7.70;4.40;;;9.90;99.90;;;;;;5043332;28;20468;-55
2021/12/16 10:01:24;;;;;;;6.43;4.20;;;9.90;99.90;;;;;;5039512;28;20436;-57
2021/12/16 10:03:53;;;;;;;10.23;5.13;;;9.90;99.90;;;;;;5046120;28;20503;-57
2021/12/16 10:06:20;;;;;;;9.33;5.77;;;9.90;99.90;;;;;;5048458;28;20452;-57
2021/12/16 10:08:48;;;;;;;13.30;5.20;;;9.90;99.90;;;;;;5047315;28;20497;-57
2021/12/16 10:11:17;;;;;;;10.47;5.10;;;9.90;99.90;;;;;;5054502;28;20432;-52
2021/12/16 10:13:48;;;;;;;8.00;4.57;;;9.90;99.90;;;;;;5061209;28;20489;-54
2021/12/16 10:19:08;;;;;;;11.57;4.57;;;10.00;99.90;;;;;;5019740;28;20507;-54
2021/12/16 10:21:36;;;;;;;7.20;4.20;;;10.00;99.90;;;;;;5045377;28;20495;-53
2021/12/16 10:24:03;;;;;;;11.40;5.63;;;10.00;99.90;;;;;;5045011;28;20495;-56
2021/12/16 10:26:32;;;;;;;9.17;5.03;;;10.00;99.90;;;;;;5045557;28;20479;-55
2021/12/16 10:29:02;;;;;;;9.13;4.53;;;10.10;99.90;;;;;;5044830;28;20486;-57
2021/12/16 10:31:31;;;;;;;10.60;4.43;;;10.10;99.90;;;;;;5044895;28;20481;-57
2021/12/16 10:34:06;;;;;;;6.23;4.20;;;10.20;99.90;;;;;;5052160;28;20952;-56
2021/12/16 10:36:34;;;;;;;7.13;4.77;;;10.10;99.90;;;;;;5056170;28;20427;-55
2021/12/16 10:39:07;;;;;;;7.00;3.93;;;10.10;99.90;;;;;;5054679;28;20463;-57
2021/12/16 10:41:37;;;;;;;8.60;4.80;;;10.10;99.90;;;;;;5054384;28;20460;-57
2021/12/16 10:44:07;;;;;;;8.97;5.20;;;10.10;99.90;;;;;;5056754;28;20469;-57
2021/12/16 10:46:37;;;;;;;7.33;4.37;;;10.10;99.90;;;;;;5055316;28;20435;-57
2021/12/16 10:49:07;;;;;;;7.07;4.47;;;10.00;99.90;;;;;;5053852;28;20574;-55
2021/12/16 10:51:37;;;;;;;9.20;4.00;;;10.00;99.90;;;;;;5055481;28;20441;-53
2021/12/16 10:54:11;;;;;;;7.80;4.20;;;10.10;99.90;;;;;;5054343;28;20479;-57
2021/12/16 10:56:48;;;;;;;7.77;3.97;;;10.10;99.90;;;;;;5044189;28;20433;-55
2021/12/16 10:59:18;;;;;;;7.47;3.97;;;10.20;99.90;;;;;;5043716;28;20503;-53
2021/12/16 11:02:14;;;;;;;9.40;4.93;;;10.20;99.90;;;;;;5044357;28;20549;-54
2021/12/16 11:04:44;;;;;;;6.57;3.70;;;10.30;99.90;;;;;;5043413;28;20491;-56
2021/12/16 11:07:19;;;;;;;6.00;4.20;;;10.20;99.90;;;;;;5043157;28;20468;-55
2021/12/16 11:09:53;;;;;;;5.70;3.80;;;10.30;99.90;;;;;;5038956;28;20468;-57
2021/12/16 11:12:38;;;;;;;6.60;4.03;;;10.30;99.90;;;;;;5039792;28;20460;-54
2021/12/16 11:15:11;;;;;;;4.93;3.50;;;10.30;99.90;;;;;;5040081;28;20444;-58
2021/12/16 11:17:40;;;;;;;4.20;3.20;;;10.40;99.90;;;;;;5041835;28;20502;-56
2021/12/16 11:20:13;;;;;;;3.60;2.10;;;10.50;99.90;;;;;;5045579;28;20428;-56
2021/12/16 11:22:42;;;;;;;3.93;3.00;;;10.50;99.90;;;;;;5044156;28;20523;-55
2021/12/16 11:25:18;;;;;;;6.47;3.50;;;10.50;99.90;;;;;;5044305;28;20445;-57
2021/12/16 11:27:49;;;;;;;6.00;3.40;;;10.50;99.90;;;;;;5047602;28;20437;-53
2021/12/16 11:30:31;;;;;;;4.87;3.00;;;10.50;99.90;;;;;;5052611;28;20492;-56
2021/12/16 11:33:07;;;;;;;5.10;3.13;;;10.50;99.90;;;;;;5046581;28;20444;-57
2021/12/16 11:35:41;;;;;;;5.43;3.00;;;10.60;99.90;;;;;;5043572;28;20508;-55
2021/12/16 11:38:14;;;;;;;3.77;2.87;;;10.60;99.90;;;;;;5043583;28;20944;-54
2021/12/16 11:41:05;;;;;;;5.07;2.70;;;10.70;99.90;;;;;;5042344;28;20872;-55
2021/12/16 11:43:49;;;;;;;3.40;2.63;;;10.80;99.90;;;;;;5042293;28;20428;-54
2021/12/16 11:46:22;;;;;;;4.13;2.70;;;10.80;99.90;;;;;;5039663;28;20479;-57
2021/12/16 11:48:51;;;;;;;7.67;3.23;;;10.80;99.90;;;;;;5040011;28;20480;-54
2021/12/16 11:51:23;;;;;;;4.70;3.20;;;10.80;99.90;;;;;;5041454;28;20448;-54
2021/12/16 11:53:53;;;;;;;4.60;2.80;;;10.90;99.90;;;;;;5040231;28;20447;-56
2021/12/16 11:56:22;;;;;;;4.00;2.77;;;10.90;99.90;;;;;;5039551;28;20487;-56
2021/12/16 11:58:49;;;;;;;7.97;2.53;;;10.90;99.90;;;;;;5039010;28;20445;-53
2021/12/16 12:01:20;;;;;;;5.90;3.60;;;11.00;99.90;;;;;;5038118;28;20487;-55
2021/12/16 12:03:47;;;;;;;3.83;2.50;;;11.10;99.90;;;;;;5038940;28;20530;-55
2021/12/16 12:06:27;;;;;;;2.63;2.10;;;11.10;99.90;;;;;;5039329;28;20467;-54
2021/12/16 12:08:56;;;;;;;3.93;2.43;;;11.20;99.90;;;;;;5039206;28;20512;-56
2021/12/16 12:11:26;;;;;;;6.47;2.53;;;11.10;99.90;;;;;;5040399;28;20433;-56
2021/12/16 12:13:58;;;;;;;5.40;2.50;;;11.10;99.90;;;;;;5039789;28;20456;-54
2021/12/16 12:16:33;;;;;;;3.03;2.00;;;11.10;99.90;;;;;;5045852;28;20429;-56
2021/12/16 12:19:07;;;;;;;4.30;2.60;;;11.10;99.90;;;;;;5042222;28;20421;-55
2021/12/16 12:21:37;;;;;;;7.43;3.13;;;11.10;99.90;;;;;;5041911;28;20468;-57
2021/12/16 12:24:08;;;;;;;3.73;2.60;;;11.00;99.90;;;;;;5042056;28;20460;-56
2021/12/16 12:26:39;;;;;;;3.70;2.47;;;11.00;99.90;;;;;;5042703;28;20444;-55
2021/12/16 12:29:11;;;;;;;3.40;1.90;;;11.00;99.90;;;;;;5042870;28;20470;-51
2021/12/16 12:31:41;;;;;;;3.63;2.43;;;10.90;99.90;;;;;;5040707;28;20441;-54
2021/12/16 12:34:08;;;;;;;2.77;1.73;;;10.90;99.90;;;;;;5040443;28;20535;-56
2021/12/16 12:36:35;;;;;;;4.37;2.20;;;10.90;99.90;;;;;;5041427;28;20452;-56
2021/12/16 12:39:05;;;;;;;4.90;2.07;;;11.00;99.90;;;;;;5040972;28;20898;-53
2021/12/16 12:41:32;;;;;;;2.57;1.80;;;11.00;99.90;;;;;;5040640;28;20528;-56
2021/12/16 12:44:01;;;;;;;2.70;1.60;;;11.10;99.90;;;;;;5034706;28;20510;-57
2021/12/16 12:46:29;;;;;;;2.60;1.50;;;11.10;99.90;;;;;;5034688;28;20503;-57
2021/12/16 12:49:00;;;;;;;13.30;2.10;;;10.90;99.90;;;;;;5034479;28;20489;-57
2021/12/16 12:51:39;;;;;;;3.87;2.03;;;10.80;99.90;;;;;;5042408;28;20432;-57
2021/12/16 12:54:22;;;;;;;3.27;2.10;;;10.70;99.90;;;;;;5046680;28;20885;-54
2021/12/16 12:56:50;;;;;;;3.17;1.90;;;10.70;99.90;;;;;;5041820;28;20444;-57
2021/12/16 12:59:18;;;;;;;2.70;2.13;;;10.60;99.90;;;;;;5041829;28;20447;-55
2021/12/16 13:01:49;;;;;;;8.87;3.30;;;10.60;99.90;;;;;;5045059;28;20517;-56
2021/12/16 13:04:21;;;;;;;4.13;2.20;;;10.60;99.90;;;;;;5041897;28;20499;-56
2021/12/16 13:07:08;;;;;;;2.80;1.73;;;10.60;99.90;;;;;;5041660;28;20448;-56
2021/12/16 13:09:41;;;;;;;4.30;1.90;;;10.70;99.90;;;;;;5041236;28;20530;-56
2021/12/16 13:12:45;;;;;;;3.33;2.90;;;10.70;99.90;;;;;;5045291;28;20412;-54
2021/12/16 13:15:37;;;;;;;3.53;1.90;;;10.60;99.90;;;;;;4975539;29;20447;-56
2021/12/16 13:23:49;;;;;;;3.73;2.27;;;10.50;99.90;;;;;;5057340;28;20502;-56
2021/12/16 13:26:33;;;;;;;2.03;1.77;;;10.40;99.90;;;;;;5048855;28;20471;-55
2021/12/16 13:29:11;;;;;;;5.23;2.03;;;10.40;99.90;;;;;;5048276;28;20495;-56
2021/12/16 13:31:51;;;;;;;6.73;2.20;;;10.40;99.90;;;;;;5054841;28;20428;-54
2021/12/16 13:34:37;;;;;;;3.87;2.17;;;10.40;99.90;;;;;;5049739;28;20475;-57
2021/12/16 13:37:13;;;;;;;2.90;2.10;;;10.40;99.90;;;;;;5054584;28;20457;-53
2021/12/16 13:39:46;;;;;;;4.87;2.80;;;10.30;99.90;;;;;;5054228;28;20451;-57
2021/12/16 13:42:15;;;;;;;5.73;2.37;;;10.30;99.90;;;;;;5046538;28;20736;-57
2021/12/16 13:44:59;;;;;;;3.00;2.20;;;10.30;99.90;;;;;;5051729;28;20467;-58
2021/12/16 14:02:57;;;;;;;5.17;2.37;;;10.20;99.90;;;;;;5041939;28;20409;-55
2021/12/16 14:05:43;;;;;;;5.07;1.83;;;10.20;99.90;;;;;;5041691;28;20970;-54
2021/12/16 14:08:13;;;;;;;2.97;1.77;;;10.10;99.90;;;;;;5041612;28;20432;-57
2021/12/16 14:10:53;;;;;;;3.13;1.60;;;10.10;99.90;;;;;;5041673;28;20472;-57
2021/12/16 14:25:06;;;;;;;4.13;1.67;;;10.00;99.90;;;;;;5044001;28;20541;-50
2021/12/16 14:38:55;;;;;;;2.60;1.80;;;9.70;99.90;;;;;;5028181;28;20773;-54
2021/12/16 14:45:10;;;;;;;2.43;1.70;;;9.80;99.90;;;;;;5006654;28;20424;-56
2021/12/16 14:47:16;;;;;;;2.60;1.63;;;9.70;99.90;;;;;;5054142;28;20439;-56
2021/12/16 14:49:48;;;;;;;2.70;2.07;;;9.70;99.90;;;;;;5053758;28;20487;-54
2021/12/16 14:52:16;;;;;;;6.60;1.97;;;9.70;99.90;;;;;;5053595;28;20458;-56
2021/12/16 14:54:51;;;;;;;7.87;1.80;;;9.70;99.90;;;;;;5053791;28;20479;-55
2021/12/16 14:57:23;;;;;;;4.67;2.60;;;9.60;99.90;;;;;;5054019;28;20451;-56
2021/12/16 14:59:51;;;;;;;3.83;2.00;;;9.60;99.90;;;;;;5054067;28;20536;-52
2021/12/16 15:02:19;;;;;;;2.57;1.77;;;9.50;99.90;;;;;;5047247;28;20479;-55
2021/12/16 15:04:46;;;;;;;5.33;2.13;;;9.50;99.90;;;;;;5041318;28;20449;-51
2021/12/16 15:07:15;;;;;;;4.40;1.90;;;9.50;99.90;;;;;;5040609;28;20448;-54
2021/12/16 15:09:42;;;;;;;2.50;1.83;;;9.50;99.90;;;;;;5044255;28;20487;-54
2021/12/16 15:12:17;;;;;;;2.43;1.63;;;9.40;99.90;;;;;;5045229;28;20568;-54
2021/12/16 15:15:05;;;;;;;5.63;2.20;;;9.40;99.90;;;;;;5047692;28;20447;-54
2021/12/16 15:31:39;;;;;;;2.30;1.57;;;9.40;99.90;;;;;;5059415;28;20823;-53
2021/12/16 15:32:25;;;;;;;8.37;2.60;;;9.30;99.90;;;;;;5063025;28;20416;-51
2021/12/16 15:37:39;;;;;;;5.90;2.27;;;9.30;99.90;;;;;;5064794;28;20455;-57
2021/12/16 15:40:17;;;;;;;3.50;2.30;;;9.20;99.90;;;;;;5063840;28;20453;-55
2021/12/16 15:42:50;;;;;;;3.70;2.43;;;9.20;99.90;;;;;;5068467;28;20489;-55
2021/12/16 15:45:23;;;;;;;12.00;2.63;;;9.20;99.90;;;;;;5073803;28;20431;-57
2021/12/16 15:47:52;;;;;;;7.97;2.50;;;9.10;99.90;;;;;;5073960;28;20419;-53
2021/12/16 15:50:24;;;;;;;5.17;2.30;;;9.10;99.90;;;;;;5073832;28;20467;-54